Impacts METAR Board INFO
IDs:

KFLL - Ft Lauderdale-Hollyw, FL, US

Updated at: 0129 UTC 13 Dec 2017
Potential Impact None Slight Moderate High
Time12/13Z 12/14Z 12/15Z 12/16Z 12/17Z 12/18Z 12/19Z 12/20Z 12/21Z 12/22Z 12/23Z 13/00Z 13/01Z
VIS10 10 10 10 10 10 10 10 10 10 10 10 10
CIG-- -- -- -- -- -- -- -- -- -- -- -- --
CoverFEWFEWFEWFEWFEWCLRFEWFEWSCTSCTSCTSCTCLR
FltCatVFRVFRVFRVFRVFRVFRVFRVFRVFRVFRVFRVFRVFR
WX--------------------------
WDir300290260280300280270270260250250250230
WSpd4 5 5 9 10 10 13 12 15 11 9 9 7
WGst-- -- -- -- 18 -- 18 21 -- -- -- -- --
Raw hourly METARs
KFLL 121253Z 30004KT 10SM FEW030 FEW250 11/08 A3011 RMK AO2 SLP196 T01110078 $
KFLL 121353Z 29005KT 10SM FEW030 FEW250 14/06 A3012 RMK AO2 SLP198 T01390061 $
KFLL 121453Z 26005KT 10SM FEW030 FEW250 17/06 A3011 RMK AO2 SLP196 T01670056 50002 $
KFLL 121553Z 28009KT 10SM FEW030 FEW250 18/08 A3009 RMK AO2 SLP188 T01830083 $
KFLL 121653Z 30010G18KT 10SM FEW030 FEW250 20/10 A3005 RMK AO2 SLP174 T02000100 $
KFLL 121753Z 28010KT 10SM CLR 21/11 A3000 RMK AO2 SLP158 T02110111 10211 20100 58038 $
KFLL 121853Z 27013G18KT 10SM FEW040 FEW250 21/12 A2997 RMK AO2 SLP147 T02110117 $
KFLL 121953Z 27012G21KT 10SM FEW040 FEW250 22/12 A2995 RMK AO2 SLP142 T02170122
KFLL 122053Z 26015KT 10SM SCT049 SCT250 22/12 A2995 RMK AO2 SLP141 T02220122 56017
KFLL 122153Z 25011KT 10SM FEW055 SCT250 21/13 A2996 RMK AO2 SLP144 T02110128
KFLL 122253Z 25009KT 10SM FEW055 SCT250 20/14 A2996 RMK AO2 SLP146 T02000139
KFLL 122353Z 25009KT 10SM FEW055 SCT250 19/14 A2996 RMK AO2 SLP144 T01940139 10222 20194 50003
KFLL 130053Z 23007KT 10SM CLR 18/14 A2997 RMK AO2 SLP149 T01830144